createdAt,value
2018-09-15T00:02:19.701Z,50.20
2018-09-15T00:04:50.296Z,49.40
2018-09-15T00:07:21.237Z,49.05
2018-09-15T00:09:51.582Z,49.25
2018-09-15T00:12:21.911Z,49.42
2018-09-15T00:14:52.298Z,49.54
2018-09-15T00:17:23.110Z,49.82
2018-09-15T00:19:53.704Z,49.82
2018-09-15T00:22:24.131Z,48.72
2018-09-15T00:24:54.621Z,49.52
2018-09-15T00:27:26.103Z,49.93
2018-09-15T00:29:55.972Z,50.36
2018-09-15T00:32:26.451Z,50.26
2018-09-15T00:34:56.763Z,49.77
2018-09-15T00:37:27.726Z,50.54
2018-09-15T00:39:57.992Z,49.94
2018-09-15T00:42:28.363Z,50.87
2018-09-15T00:44:59.162Z,50.85
2018-09-15T00:47:30.731Z,51.05
2018-09-15T00:50:01.070Z,50.54
2018-09-15T00:52:31.194Z,50.71
2018-09-15T00:55:01.477Z,50.61
2018-09-15T00:57:32.239Z,50.26
2018-09-15T01:00:02.682Z,50.69
2018-09-15T01:02:33.562Z,51.07
2018-09-15T01:05:04.070Z,50.89
2018-09-15T01:07:34.920Z,50.82
2018-09-15T01:10:05.382Z,51.54
2018-09-15T01:12:35.898Z,51.50
2018-09-15T01:15:06.339Z,51.42
2018-09-15T01:17:37.042Z,54.71
2018-09-15T01:20:07.388Z,56.04
2018-09-15T01:22:37.893Z,54.35
2018-09-15T01:25:08.043Z,56.00
2018-09-15T01:27:39.447Z,55.91
2018-09-15T01:30:09.885Z,54.55
2018-09-15T01:32:40.452Z,53.78
2018-09-15T01:35:10.782Z,52.41
2018-09-15T01:37:41.481Z,54.17
2018-09-15T01:40:12.031Z,54.21
2018-09-15T01:42:42.366Z,53.46
2018-09-15T01:45:12.674Z,53.66
2018-09-15T01:47:43.308Z,52.47
2018-09-15T01:50:13.903Z,53.28
2018-09-15T01:52:44.123Z,53.18
2018-09-15T01:55:14.552Z,52.42
2018-09-15T01:59:10.459Z,52.69
2018-09-15T02:01:40.861Z,54.17
2018-09-15T02:04:11.219Z,55.52
2018-09-15T02:06:41.897Z,56.99
2018-09-15T02:09:15.079Z,57.13
2018-09-15T02:11:45.500Z,57.82
2018-09-15T02:14:16.216Z,57.80
2018-09-15T02:16:47.690Z,56.56
2018-09-15T02:19:18.246Z,54.09
2018-09-15T02:21:48.760Z,53.21
2018-09-15T02:24:19.164Z,53.16
2018-09-15T02:26:50.041Z,53.78
2018-09-15T02:29:20.305Z,55.22
2018-09-15T02:31:50.761Z,54.76
2018-09-15T02:34:21.328Z,54.38
2018-09-15T02:36:52.449Z,54.85
2018-09-15T02:39:22.700Z,53.73
2018-09-15T02:41:52.703Z,53.89
2018-09-15T02:44:23.055Z,53.70
2018-09-15T02:46:53.830Z,53.25
2018-09-15T02:49:24.464Z,53.49
2018-09-15T02:51:55.083Z,53.51
2018-09-15T02:54:25.614Z,54.37
2018-09-15T02:56:56.462Z,53.41
2018-09-15T02:59:26.770Z,53.29
2018-09-15T03:01:56.993Z,53.59
2018-09-15T03:04:27.741Z,53.48
2018-09-15T03:06:58.517Z,53.89
2018-09-15T03:09:28.890Z,53.59
2018-09-15T03:11:59.546Z,53.69
2018-09-15T03:14:30.029Z,55.39
2018-09-15T03:17:01.308Z,54.20
2018-09-15T03:19:31.643Z,53.49
2018-09-15T03:22:02.218Z,53.43
2018-09-15T03:24:32.566Z,53.95
2018-09-15T03:27:04.088Z,54.36
2018-09-15T03:29:35.241Z,54.07
2018-09-15T03:32:05.981Z,55.52
2018-09-15T03:34:36.819Z,55.00
2018-09-15T03:37:07.256Z,55.33
2018-09-15T03:39:37.650Z,56.14
2018-09-15T03:42:08.299Z,55.51
2018-09-15T03:44:38.833Z,54.95
2018-09-15T03:47:11.004Z,54.61
2018-09-15T03:49:41.514Z,54.60
2018-09-15T03:52:11.786Z,54.51
2018-09-15T03:54:42.278Z,54.06
2018-09-15T03:57:13.283Z,53.82
2018-09-15T03:59:43.709Z,55.09
2018-09-15T04:02:14.066Z,56.04
2018-09-15T04:04:44.314Z,57.56
2018-09-15T04:07:15.209Z,56.04
2018-09-15T04:09:45.247Z,56.86
2018-09-15T04:12:15.678Z,55.92
2018-09-15T04:14:46.670Z,55.79
2018-09-15T04:17:17.781Z,55.75
2018-09-15T04:19:48.278Z,55.65
2018-09-15T04:22:18.494Z,54.97
2018-09-15T04:24:48.902Z,54.75
2018-09-15T04:27:19.457Z,54.74
2018-09-15T04:29:50.163Z,54.54
2018-09-15T04:32:20.735Z,54.37
2018-09-15T04:34:51.839Z,54.40
2018-09-15T04:37:22.169Z,54.37
2018-09-15T04:39:52.594Z,54.82
2018-09-15T04:42:22.751Z,54.19
2018-09-15T04:44:52.994Z,55.33
2018-09-15T04:47:55.327Z,54.35
2018-09-15T04:50:25.594Z,54.51
2018-09-15T04:52:55.970Z,55.46
2018-09-15T04:55:26.305Z,54.55
2018-09-15T04:57:56.794Z,54.80
2018-09-15T05:00:27.157Z,54.66
2018-09-15T05:02:57.478Z,54.08
2018-09-15T05:05:28.619Z,53.31
2018-09-15T05:07:58.803Z,53.50
2018-09-15T05:10:29.262Z,53.62
2018-09-15T05:12:59.783Z,53.41
2018-09-15T05:15:31.350Z,55.75
2018-09-15T05:18:01.537Z,55.21
2018-09-15T05:20:31.679Z,55.81
2018-09-15T05:23:01.883Z,57.19
2018-09-15T05:25:33.204Z,54.59
2018-09-15T05:28:03.655Z,56.52
2018-09-15T05:30:34.381Z,56.08
2018-09-15T05:33:04.814Z,55.76
2018-09-15T05:35:35.856Z,54.57
2018-09-15T05:38:06.032Z,55.32
2018-09-15T05:40:36.206Z,55.76
2018-09-15T05:43:06.349Z,54.83
2018-09-15T05:45:37.653Z,53.76
2018-09-15T05:48:08.298Z,54.66
2018-09-15T05:50:38.846Z,53.66
2018-09-15T05:53:09.175Z,51.35
2018-09-15T05:55:40.382Z,50.23
2018-09-15T05:58:10.845Z,49.96
2018-09-15T06:00:41.235Z,47.70
2018-09-15T06:03:11.752Z,47.73
2018-09-15T06:05:42.593Z,47.45
2018-09-15T06:08:13.086Z,47.67
2018-09-15T06:10:43.482Z,45.46
2018-09-15T06:13:14.002Z,44.52
2018-09-15T06:15:44.179Z,46.03
2018-09-15T06:18:13.942Z,44.20
2018-09-15T06:20:43.661Z,45.74
2018-09-15T06:23:13.428Z,43.25
2018-09-15T06:25:43.184Z,44.67
2018-09-15T06:28:13.019Z,45.02
2018-09-15T06:30:42.766Z,43.00
2018-09-15T06:33:12.400Z,43.36
2018-09-15T06:35:42.331Z,42.96
2018-09-15T06:38:12.068Z,41.68
2018-09-15T06:40:41.805Z,41.48
2018-09-15T06:43:12.640Z,39.76
2018-09-15T06:45:42.983Z,39.17
2018-09-15T06:48:12.752Z,39.02
2018-09-15T06:50:42.477Z,37.25
2018-09-15T06:53:12.104Z,37.29
2018-09-15T06:55:41.845Z,35.30
2018-09-15T06:58:11.454Z,35.95
2018-09-15T07:00:41.351Z,35.75
2018-09-15T07:03:11.202Z,35.25
2018-09-15T07:05:41.022Z,35.47
2018-09-15T07:08:10.810Z,35.44
2018-09-15T07:10:40.522Z,34.93
2018-09-15T07:13:11.045Z,34.92
2018-09-15T07:15:40.842Z,33.64
2018-09-15T07:18:10.774Z,32.17
2018-09-15T07:20:40.531Z,31.87
2018-09-15T07:23:10.206Z,30.30
2018-09-15T07:25:39.955Z,29.85
2018-09-15T07:28:09.677Z,31.21
2018-09-15T07:30:39.588Z,29.38
2018-09-15T07:33:09.990Z,29.26
2018-09-15T07:35:40.000Z,28.96
2018-09-15T07:38:09.660Z,28.80
2018-09-15T07:40:39.426Z,28.81
2018-09-15T07:43:09.462Z,28.18
2018-09-15T07:45:39.277Z,29.07
2018-09-15T07:48:09.046Z,28.11
2018-09-15T07:50:38.858Z,28.32
2018-09-15T07:53:08.666Z,28.57
2018-09-15T07:55:38.406Z,27.66
2018-09-15T07:58:08.198Z,26.12
2018-09-15T08:00:38.047Z,26.98
2018-09-15T08:03:07.721Z,27.30
2018-09-15T08:05:37.435Z,26.27
2018-09-15T08:08:07.227Z,25.40
2018-09-15T08:10:37.041Z,25.65
2018-09-15T08:13:06.849Z,25.12
2018-09-15T08:15:36.523Z,25.36
2018-09-15T08:18:06.316Z,24.33
2018-09-15T08:20:36.005Z,23.08
2018-09-15T08:23:06.607Z,23.27
2018-09-15T08:25:36.320Z,23.12
2018-09-15T08:28:06.228Z,23.07
2018-09-15T08:30:36.125Z,22.53
2018-09-15T08:33:06.014Z,24.10
2018-09-15T08:35:36.310Z,23.29
2018-09-15T08:38:06.218Z,24.07
2018-09-15T08:40:35.947Z,24.46
2018-09-15T08:43:06.344Z,24.86
2018-09-15T08:45:37.486Z,24.28
2018-09-15T08:48:07.550Z,23.18
2018-09-15T08:50:37.361Z,23.60
2018-09-15T08:53:07.271Z,23.66
2018-09-15T08:55:37.771Z,23.41
2018-09-15T08:58:07.447Z,25.39
2018-09-15T09:00:37.241Z,24.35
2018-09-15T09:03:07.147Z,22.79
2018-09-15T09:05:37.070Z,23.26
2018-09-15T09:08:06.942Z,23.15
2018-09-15T09:10:36.742Z,25.24
2018-09-15T09:13:06.472Z,22.66
2018-09-15T09:15:36.258Z,21.43
2018-09-15T09:18:06.093Z,20.54
2018-09-15T09:20:35.730Z,19.43
2018-09-15T09:23:05.634Z,19.66
2018-09-15T09:25:35.218Z,20.76
2018-09-15T09:28:05.017Z,20.64
2018-09-15T09:30:34.780Z,18.64
2018-09-15T09:33:04.736Z,18.36
2018-09-15T09:35:34.586Z,18.15
2018-09-15T09:38:04.934Z,18.74
2018-09-15T09:40:34.923Z,17.49
2018-09-15T09:43:04.721Z,17.48
2018-09-15T09:45:34.538Z,18.04
2018-09-15T09:48:04.197Z,17.67
2018-09-15T09:50:34.045Z,17.54
2018-09-15T09:53:03.785Z,16.10
2018-09-15T09:55:33.581Z,14.76
2018-09-15T09:58:03.576Z,14.71
2018-09-15T10:00:38.199Z,14.10
2018-09-15T10:03:08.024Z,14.76
2018-09-15T10:05:38.363Z,15.65
2018-09-15T10:08:08.194Z,15.66
2018-09-15T10:11:09.558Z,15.54
2018-09-15T10:13:39.334Z,16.93
2018-09-15T10:16:09.069Z,16.39
2018-09-15T10:18:38.940Z,16.18
2018-09-15T10:21:08.694Z,14.74
2018-09-15T10:23:38.453Z,15.94
2018-09-15T10:26:08.578Z,14.26
2018-09-15T10:28:38.372Z,14.09
2018-09-15T10:31:08.096Z,12.86
2018-09-15T10:33:37.983Z,12.63
2018-09-15T10:36:07.808Z,13.28
2018-09-15T10:38:38.093Z,14.27
2018-09-15T10:41:08.018Z,13.44
2018-09-15T10:43:37.760Z,14.90
2018-09-15T10:46:07.778Z,12.60
2018-09-15T10:48:37.521Z,12.59
2018-09-15T10:51:07.322Z,12.66
2018-09-15T10:53:37.146Z,12.11
2018-09-15T10:56:07.855Z,11.57
2018-09-15T10:58:37.718Z,11.96
2018-09-15T11:01:07.430Z,12.37
2018-09-15T11:03:37.781Z,13.48
2018-09-15T11:06:08.505Z,12.98
2018-09-15T11:08:38.734Z,11.36
2018-09-15T11:11:09.268Z,11.75
2018-09-15T11:13:39.669Z,12.30
2018-09-15T11:16:09.415Z,12.75
2018-09-15T11:18:39.206Z,13.28
2018-09-15T11:21:09.029Z,11.65
2018-09-15T11:23:38.820Z,11.13
2018-09-15T11:26:08.568Z,11.90
2018-09-15T11:28:38.307Z,11.38
2018-09-15T11:31:08.176Z,11.53
2018-09-15T11:33:38.239Z,12.36
2018-09-15T11:36:07.875Z,13.46
2018-09-15T11:38:37.742Z,13.24
2018-09-15T11:41:07.996Z,13.64
2018-09-15T11:43:37.972Z,12.50
2018-09-15T11:46:07.784Z,13.40
2018-09-15T11:48:37.684Z,13.96
2018-09-15T11:51:07.533Z,13.56
2018-09-15T11:53:37.359Z,13.90
2018-09-15T11:56:07.119Z,13.89
2018-09-15T11:58:36.894Z,14.26
2018-09-15T12:01:06.634Z,15.70
2018-09-15T12:03:36.457Z,15.41
2018-09-15T12:06:06.207Z,16.50
2018-09-15T12:08:35.971Z,16.25
2018-09-15T12:11:05.752Z,16.45
2018-09-15T12:13:36.003Z,18.46
2018-09-15T12:16:06.198Z,19.04
2018-09-15T12:18:36.759Z,20.19
2018-09-15T12:21:07.172Z,20.37
2018-09-15T12:23:37.598Z,19.90
2018-09-15T12:26:08.142Z,18.13
2018-09-15T12:28:38.654Z,18.02
2018-09-15T12:31:09.084Z,16.80
2018-09-15T12:33:40.558Z,15.92
2018-09-15T12:36:10.806Z,14.75
2018-09-15T12:38:41.049Z,14.45
2018-09-15T12:41:11.586Z,15.17
2018-09-15T12:43:42.248Z,15.00
2018-09-15T12:46:12.561Z,15.24
2018-09-15T12:48:43.207Z,16.88
2018-09-15T12:51:13.757Z,15.67
2018-09-15T12:53:45.140Z,15.48
2018-09-15T12:56:15.542Z,16.97
2018-09-15T12:58:45.635Z,17.11
2018-09-15T13:01:15.827Z,17.04
2018-09-15T13:03:46.673Z,17.51
2018-09-15T13:06:17.288Z,17.14
2018-09-15T13:08:47.821Z,16.88
2018-09-15T13:11:18.370Z,16.16
2018-09-15T13:13:49.498Z,15.91
2018-09-15T13:16:19.969Z,15.73
2018-09-15T13:18:50.486Z,15.95
2018-09-15T13:21:20.806Z,15.47
2018-09-15T13:23:51.510Z,15.56
2018-09-15T13:26:22.106Z,15.76
2018-09-15T13:28:52.425Z,16.01
2018-09-15T13:31:23.224Z,14.13
2018-09-15T13:33:54.227Z,14.24
2018-09-15T13:36:24.734Z,14.34
2018-09-15T13:38:55.279Z,14.60
2018-09-15T13:41:26.059Z,14.35
2018-09-15T13:43:57.383Z,14.09
2018-09-15T13:46:28.110Z,14.30
2018-09-15T13:48:58.939Z,15.78
2018-09-15T13:51:29.263Z,14.77
2018-09-15T13:54:00.477Z,14.80
2018-09-15T13:56:30.730Z,16.32
2018-09-15T13:59:01.220Z,16.11
2018-09-15T14:01:31.680Z,16.61
2018-09-15T14:04:02.478Z,15.96
2018-09-15T14:06:32.958Z,15.91
2018-09-15T14:09:03.935Z,16.35
2018-09-15T14:11:34.306Z,16.07
2018-09-15T14:14:05.174Z,15.63
2018-09-15T14:16:35.655Z,17.16
2018-09-15T14:19:06.103Z,16.96
2018-09-15T14:21:37.624Z,14.81
2018-09-15T14:24:08.998Z,17.01
2018-09-15T14:26:39.602Z,16.16
2018-09-15T14:29:10.009Z,15.83
2018-09-15T14:31:40.337Z,16.45
2018-09-15T14:34:11.014Z,16.27
2018-09-15T14:36:41.376Z,15.07
2018-09-15T14:39:12.593Z,15.27
2018-09-15T14:41:43.082Z,15.86
2018-09-15T14:44:13.710Z,15.09
2018-09-15T14:46:43.971Z,15.09
2018-09-15T14:49:14.395Z,16.08
2018-09-15T14:51:44.702Z,15.92
2018-09-15T14:54:15.627Z,15.39
2018-09-15T14:56:45.887Z,16.48
2018-09-15T14:59:16.548Z,16.02
2018-09-15T15:01:47.229Z,16.90
2018-09-15T15:04:18.320Z,16.08
2018-09-15T15:06:48.577Z,16.05
2018-09-15T15:09:18.917Z,16.29
2018-09-15T15:11:49.455Z,16.81
2018-09-15T15:14:21.285Z,16.10
2018-09-15T15:16:51.794Z,15.97
2018-09-15T15:19:21.527Z,16.74
2018-09-15T15:21:51.538Z,16.77
2018-09-15T15:24:22.081Z,16.67
2018-09-15T15:26:51.646Z,17.58
2018-09-15T15:29:21.348Z,17.84
2018-09-15T15:31:51.038Z,18.46
2018-09-15T15:34:20.752Z,18.36
2018-09-15T15:36:50.628Z,18.64
2018-09-15T15:39:20.511Z,17.80
2018-09-15T15:42:53.640Z,18.78
2018-09-15T15:45:23.612Z,19.77
2018-09-15T15:47:53.590Z,21.04
2018-09-15T15:50:23.449Z,21.04
2018-09-15T15:52:53.190Z,20.28
2018-09-15T15:55:23.180Z,20.22
2018-09-15T15:57:52.943Z,21.21
2018-09-15T16:00:22.901Z,21.63
2018-09-15T16:02:52.723Z,21.58
2018-09-15T16:05:22.421Z,21.97
2018-09-15T16:07:52.160Z,22.11
2018-09-15T16:10:21.818Z,22.80
2018-09-15T16:12:51.505Z,22.62
2018-09-15T16:16:23.958Z,22.85
2018-09-15T16:18:53.690Z,22.59
2018-09-15T16:21:23.434Z,22.87
2018-09-15T16:23:53.309Z,24.18
2018-09-15T16:26:23.312Z,22.96
2018-09-15T16:28:53.298Z,23.81
2018-09-15T16:31:22.985Z,24.49
2018-09-15T16:33:52.939Z,23.79
2018-09-15T16:36:22.888Z,24.58
2018-09-15T16:38:52.771Z,24.50
2018-09-15T16:41:23.169Z,24.84
2018-09-15T16:43:53.696Z,25.03
2018-09-15T16:46:23.850Z,24.86
2018-09-15T16:48:54.062Z,25.24
2018-09-15T16:51:24.986Z,26.08
2018-09-15T16:53:55.595Z,24.95
2018-09-15T16:56:56.598Z,25.36
2018-09-15T16:59:26.802Z,26.25
2018-09-15T17:01:57.830Z,25.47
2018-09-15T17:04:28.358Z,26.16
2018-09-15T17:06:58.679Z,26.01
2018-09-15T17:09:30.099Z,25.89
2018-09-15T17:12:00.368Z,26.12
2018-09-15T17:14:30.494Z,27.57
2018-09-15T17:17:00.800Z,26.68
2018-09-15T17:19:31.923Z,26.87
2018-09-15T17:22:02.020Z,27.02
2018-09-15T17:24:32.487Z,27.05
2018-09-15T17:27:02.853Z,26.73
2018-09-15T17:29:33.814Z,27.03
2018-09-15T17:32:04.068Z,26.93
2018-09-15T17:34:34.468Z,27.54
2018-09-15T17:37:04.847Z,29.11
2018-09-15T17:39:36.265Z,27.59
2018-09-15T17:42:06.854Z,28.55
2018-09-15T17:44:37.435Z,30.33
2018-09-15T17:47:07.718Z,27.97
2018-09-15T17:49:39.361Z,28.75
2018-09-15T17:52:09.794Z,29.36
2018-09-15T17:54:40.278Z,28.72
2018-09-15T17:57:10.769Z,28.66
2018-09-15T17:59:41.996Z,30.28
2018-09-15T18:02:12.157Z,28.87
2018-09-15T18:04:42.628Z,28.71
2018-09-15T18:07:13.058Z,29.12
2018-09-15T18:09:44.136Z,31.08
2018-09-15T18:12:14.370Z,31.22
2018-09-15T18:14:44.604Z,32.41
2018-09-15T18:17:15.066Z,31.50
2018-09-15T18:19:46.321Z,31.44
2018-09-15T18:22:16.729Z,31.28
2018-09-15T18:24:47.168Z,31.74
2018-09-15T18:27:17.678Z,31.97
2018-09-15T18:29:48.912Z,33.75
2018-09-15T18:32:19.026Z,32.88
2018-09-15T18:34:49.842Z,33.91
2018-09-15T18:37:20.130Z,34.03
2018-09-15T18:39:51.786Z,34.56
2018-09-15T18:42:22.246Z,34.79
2018-09-15T18:44:52.675Z,34.54
2018-09-15T18:47:22.660Z,35.18
2018-09-15T18:49:53.818Z,35.30
2018-09-15T18:52:23.935Z,35.70
2018-09-15T18:54:54.542Z,35.66
2018-09-15T18:57:24.811Z,35.75
2018-09-15T18:59:56.051Z,36.51
2018-09-15T19:02:26.309Z,36.61
2018-09-15T19:04:56.850Z,35.90
2018-09-15T19:07:27.496Z,35.97
2018-09-15T19:09:58.362Z,36.47
2018-09-15T19:12:28.528Z,36.17
2018-09-15T19:14:59.063Z,36.45
2018-09-15T19:17:29.428Z,36.40
2018-09-15T19:20:00.084Z,36.79
2018-09-15T19:22:30.481Z,36.04
2018-09-15T19:25:01.074Z,35.99
2018-09-15T19:27:31.452Z,36.15
2018-09-15T19:30:02.749Z,36.10
2018-09-15T19:32:32.908Z,36.06
2018-09-15T19:35:03.614Z,36.33
2018-09-15T19:37:33.853Z,36.13
2018-09-15T19:40:05.928Z,35.92
2018-09-15T19:42:36.292Z,36.33
2018-09-15T19:45:07.010Z,35.61
2018-09-15T19:47:37.239Z,35.54
2018-09-15T19:50:08.649Z,36.75
2018-09-15T19:52:39.181Z,36.67
2018-09-15T19:55:09.814Z,36.69
2018-09-15T19:57:40.322Z,35.28
2018-09-15T20:00:11.323Z,34.79
2018-09-15T20:02:41.601Z,34.58
2018-09-15T20:05:12.150Z,35.77
2018-09-15T20:07:42.451Z,36.30
2018-09-15T20:10:12.984Z,34.68
2018-09-15T20:12:43.501Z,34.89
2018-09-15T20:15:24.064Z,36.11
2018-09-15T20:17:53.011Z,36.41
2018-09-15T20:20:22.346Z,37.13
2018-09-15T20:22:54.294Z,37.48
2018-09-15T20:25:24.358Z,38.32
2018-09-15T20:27:54.720Z,37.71
2018-09-15T20:30:25.366Z,37.79
2018-09-15T20:32:56.008Z,38.28
2018-09-15T20:35:26.242Z,38.57
2018-09-15T20:37:56.627Z,40.27
2018-09-15T20:40:28.097Z,38.45
2018-09-15T20:42:58.172Z,38.58
2018-09-15T20:45:28.837Z,38.81
2018-09-15T20:47:59.306Z,38.65
2018-09-15T20:50:29.724Z,38.76
2018-09-15T20:53:00.247Z,38.26
2018-09-15T20:55:30.410Z,37.18
2018-09-15T20:58:00.343Z,37.58
2018-09-15T21:00:31.241Z,38.79
2018-09-15T21:03:01.654Z,36.84
2018-09-15T21:05:31.838Z,36.07
2018-09-15T21:08:02.100Z,36.45
2018-09-15T21:10:33.327Z,35.87
2018-09-15T21:13:03.964Z,35.65
2018-09-15T21:15:34.286Z,35.35
2018-09-15T21:18:04.727Z,37.17
2018-09-15T21:20:35.374Z,36.30
2018-09-15T21:23:05.995Z,37.33
2018-09-15T21:25:36.191Z,37.00
2018-09-15T21:28:06.660Z,37.79
2018-09-15T21:30:37.542Z,36.92
2018-09-15T21:33:08.290Z,37.25
2018-09-15T21:35:38.703Z,37.83
2018-09-15T21:38:09.138Z,37.94
2018-09-15T21:40:40.394Z,38.88
2018-09-15T21:43:10.882Z,38.13
2018-09-15T21:45:41.605Z,37.40
2018-09-15T21:48:12.016Z,37.64
2018-09-15T21:50:43.490Z,37.73
2018-09-15T21:53:13.814Z,37.83
2018-09-15T21:55:44.134Z,37.50
2018-09-15T21:58:14.667Z,37.40
2018-09-15T22:00:45.647Z,37.51
2018-09-15T22:03:18.413Z,37.58
2018-09-15T22:05:49.051Z,40.02
2018-09-15T22:08:19.680Z,40.35
2018-09-15T22:10:50.377Z,40.98
2018-09-15T22:13:20.832Z,42.59
2018-09-15T22:15:51.275Z,42.00
2018-09-15T22:18:21.694Z,40.59
2018-09-15T22:20:52.694Z,40.18
2018-09-15T22:23:23.220Z,40.85
2018-09-15T22:25:53.648Z,40.18
2018-09-15T22:28:24.106Z,39.98
2018-09-15T22:30:55.986Z,42.89
2018-09-15T22:33:26.519Z,42.47
2018-09-15T22:35:57.095Z,40.89
2018-09-15T22:38:27.562Z,39.80
2018-09-15T22:40:58.707Z,40.55
2018-09-15T22:43:29.026Z,39.66
2018-09-15T22:45:59.717Z,41.12
2018-09-15T22:48:30.201Z,41.31
2018-09-15T22:51:01.388Z,40.27
2018-09-15T22:53:32.132Z,40.67
2018-09-15T22:56:02.396Z,39.61
2018-09-15T22:58:32.802Z,40.48
2018-09-15T23:01:04.185Z,40.23
2018-09-15T23:03:34.657Z,41.37
2018-09-15T23:06:05.130Z,41.73
2018-09-15T23:08:35.633Z,42.07
2018-09-15T23:11:06.678Z,42.17
2018-09-15T23:13:37.245Z,42.31
2018-09-15T23:16:07.834Z,43.67
2018-09-15T23:18:38.267Z,41.42
2018-09-15T23:21:09.252Z,42.10
2018-09-15T23:23:39.477Z,41.70
2018-09-15T23:26:09.891Z,41.56
2018-09-15T23:28:40.187Z,41.08
2018-09-15T23:31:11.186Z,43.22
2018-09-15T23:33:41.802Z,45.47
2018-09-15T23:36:12.425Z,46.14
2018-09-15T23:38:42.946Z,46.75
2018-09-15T23:41:14.341Z,44.45
2018-09-15T23:43:44.973Z,44.91
2018-09-15T23:46:15.078Z,43.79
2018-09-15T23:48:45.225Z,43.42
2018-09-15T23:51:16.117Z,44.42
2018-09-15T23:53:46.638Z,43.32
2018-09-15T23:56:17.322Z,43.29
2018-09-15T23:58:47.702Z,44.08
